sensor_id;sensor_type;location;lat;lon;timestamp;P1;durP1;ratioP1;P2;durP2;ratioP2
43771;SDS011;59066;54.782;32.024;2023-06-14T00:01:49;7.55;;;3.15;;
43771;SDS011;59066;54.782;32.024;2023-06-14T00:04:16;6.28;;;3.10;;
43771;SDS011;59066;54.782;32.024;2023-06-14T00:06:44;6.70;;;3.58;;
43771;SDS011;59066;54.782;32.024;2023-06-14T00:09:15;8.13;;;2.92;;
43771;SDS011;59066;54.782;32.024;2023-06-14T00:11:44;7.32;;;3.30;;
43771;SDS011;59066;54.782;32.024;2023-06-14T00:14:14;10.35;;;3.92;;
43771;SDS011;59066;54.782;32.024;2023-06-14T00:16:42;5.97;;;3.75;;
43771;SDS011;59066;54.782;32.024;2023-06-14T00:19:11;7.35;;;3.38;;
43771;SDS011;59066;54.782;32.024;2023-06-14T00:21:39;9.13;;;3.28;;
43771;SDS011;59066;54.782;32.024;2023-06-14T00:24:07;6.32;;;3.25;;
43771;SDS011;59066;54.782;32.024;2023-06-14T00:26:35;9.52;;;3.85;;
43771;SDS011;59066;54.782;32.024;2023-06-14T00:29:02;6.43;;;3.40;;
43771;SDS011;59066;54.782;32.024;2023-06-14T00:31:29;7.95;;;3.75;;
43771;SDS011;59066;54.782;32.024;2023-06-14T00:33:57;11.13;;;3.22;;
43771;SDS011;59066;54.782;32.024;2023-06-14T00:36:24;10.98;;;3.58;;
43771;SDS011;59066;54.782;32.024;2023-06-14T00:38:52;8.57;;;3.30;;
43771;SDS011;59066;54.782;32.024;2023-06-14T00:41:21;8.32;;;3.38;;
43771;SDS011;59066;54.782;32.024;2023-06-14T00:43:50;6.30;;;3.40;;
43771;SDS011;59066;54.782;32.024;2023-06-14T00:46:18;6.03;;;3.67;;
43771;SDS011;59066;54.782;32.024;2023-06-14T00:48:46;5.75;;;3.30;;
43771;SDS011;59066;54.782;32.024;2023-06-14T00:51:15;6.00;;;3.65;;
43771;SDS011;59066;54.782;32.024;2023-06-14T00:53:43;9.00;;;3.80;;
43771;SDS011;59066;54.782;32.024;2023-06-14T00:56:14;6.70;;;3.25;;
43771;SDS011;59066;54.782;32.024;2023-06-14T00:58:42;6.82;;;3.90;;
43771;SDS011;59066;54.782;32.024;2023-06-14T01:01:10;5.85;;;3.42;;
43771;SDS011;59066;54.782;32.024;2023-06-14T01:03:38;7.80;;;3.75;;
43771;SDS011;59066;54.782;32.024;2023-06-14T01:06:17;6.05;;;3.80;;
43771;SDS011;59066;54.782;32.024;2023-06-14T01:08:59;8.00;;;3.47;;
43771;SDS011;59066;54.782;32.024;2023-06-14T01:11:37;10.05;;;3.55;;
43771;SDS011;59066;54.782;32.024;2023-06-14T01:14:33;6.10;;;3.58;;
43771;SDS011;59066;54.782;32.024;2023-06-14T01:17:02;6.25;;;3.70;;
43771;SDS011;59066;54.782;32.024;2023-06-14T01:19:30;5.97;;;3.53;;
43771;SDS011;59066;54.782;32.024;2023-06-14T01:22:01;5.63;;;3.55;;
43771;SDS011;59066;54.782;32.024;2023-06-14T01:24:29;10.07;;;4.18;;
43771;SDS011;59066;54.782;32.024;2023-06-14T01:26:59;7.45;;;3.75;;
43771;SDS011;59066;54.782;32.024;2023-06-14T01:29:27;6.88;;;3.75;;
43771;SDS011;59066;54.782;32.024;2023-06-14T01:31:59;7.50;;;3.80;;
43771;SDS011;59066;54.782;32.024;2023-06-14T01:34:30;7.00;;;3.58;;
43771;SDS011;59066;54.782;32.024;2023-06-14T01:36:58;5.30;;;3.58;;
43771;SDS011;59066;54.782;32.024;2023-06-14T01:39:28;12.55;;;3.95;;
43771;SDS011;59066;54.782;32.024;2023-06-14T01:41:56;9.10;;;3.63;;
43771;SDS011;59066;54.782;32.024;2023-06-14T01:44:24;6.97;;;3.50;;
43771;SDS011;59066;54.782;32.024;2023-06-14T01:46:52;6.63;;;3.90;;
43771;SDS011;59066;54.782;32.024;2023-06-14T01:49:21;7.43;;;3.65;;
43771;SDS011;59066;54.782;32.024;2023-06-14T01:51:49;7.53;;;3.88;;
43771;SDS011;59066;54.782;32.024;2023-06-14T01:54:16;7.88;;;4.10;;
43771;SDS011;59066;54.782;32.024;2023-06-14T01:56:44;8.05;;;4.00;;
43771;SDS011;59066;54.782;32.024;2023-06-14T01:59:11;7.50;;;3.95;;
43771;SDS011;59066;54.782;32.024;2023-06-14T02:01:39;8.70;;;4.50;;
43771;SDS011;59066;54.782;32.024;2023-06-14T02:04:08;5.53;;;3.67;;
43771;SDS011;59066;54.782;32.024;2023-06-14T02:06:36;4.60;;;3.40;;
43771;SDS011;59066;54.782;32.024;2023-06-14T02:09:04;6.20;;;3.75;;
43771;SDS011;59066;54.782;32.024;2023-06-14T02:11:31;9.52;;;4.43;;
43771;SDS011;59066;54.782;32.024;2023-06-14T02:13:59;7.82;;;3.60;;
43771;SDS011;59066;54.782;32.024;2023-06-14T02:16:27;9.30;;;3.85;;
43771;SDS011;59066;54.782;32.024;2023-06-14T02:18:56;9.32;;;4.15;;
43771;SDS011;59066;54.782;32.024;2023-06-14T02:21:24;8.05;;;4.07;;
43771;SDS011;59066;54.782;32.024;2023-06-14T02:23:51;7.15;;;4.05;;
43771;SDS011;59066;54.782;32.024;2023-06-14T02:26:19;7.18;;;3.75;;
43771;SDS011;59066;54.782;32.024;2023-06-14T02:28:47;6.47;;;3.85;;
43771;SDS011;59066;54.782;32.024;2023-06-14T02:31:15;7.97;;;3.90;;
43771;SDS011;59066;54.782;32.024;2023-06-14T02:33:43;6.60;;;4.07;;
43771;SDS011;59066;54.782;32.024;2023-06-14T02:36:10;6.22;;;3.53;;
43771;SDS011;59066;54.782;32.024;2023-06-14T02:38:37;6.00;;;3.50;;
43771;SDS011;59066;54.782;32.024;2023-06-14T02:41:08;7.22;;;3.55;;
43771;SDS011;59066;54.782;32.024;2023-06-14T02:43:35;10.90;;;3.78;;
43771;SDS011;59066;54.782;32.024;2023-06-14T02:46:05;9.45;;;4.50;;
43771;SDS011;59066;54.782;32.024;2023-06-14T02:48:33;12.02;;;3.78;;
43771;SDS011;59066;54.782;32.024;2023-06-14T02:51:01;11.60;;;4.57;;
43771;SDS011;59066;54.782;32.024;2023-06-14T02:53:28;7.53;;;3.88;;
43771;SDS011;59066;54.782;32.024;2023-06-14T02:55:57;5.75;;;3.95;;
43771;SDS011;59066;54.782;32.024;2023-06-14T02:58:25;10.38;;;4.18;;
43771;SDS011;59066;54.782;32.024;2023-06-14T03:00:53;8.48;;;4.00;;
43771;SDS011;59066;54.782;32.024;2023-06-14T03:03:21;5.47;;;3.88;;
43771;SDS011;59066;54.782;32.024;2023-06-14T03:05:54;6.47;;;3.80;;
43771;SDS011;59066;54.782;32.024;2023-06-14T03:08:25;8.18;;;3.80;;
43771;SDS011;59066;54.782;32.024;2023-06-14T03:10:56;7.68;;;4.07;;
43771;SDS011;59066;54.782;32.024;2023-06-14T03:13:25;6.35;;;4.25;;
43771;SDS011;59066;54.782;32.024;2023-06-14T03:15:54;10.88;;;4.10;;
43771;SDS011;59066;54.782;32.024;2023-06-14T03:18:24;7.93;;;3.92;;
43771;SDS011;59066;54.782;32.024;2023-06-14T03:20:54;8.43;;;3.80;;
43771;SDS011;59066;54.782;32.024;2023-06-14T03:23:25;8.93;;;4.22;;
43771;SDS011;59066;54.782;32.024;2023-06-14T03:25:53;8.07;;;4.32;;
43771;SDS011;59066;54.782;32.024;2023-06-14T03:28:21;7.60;;;4.03;;
43771;SDS011;59066;54.782;32.024;2023-06-14T03:30:49;8.45;;;4.55;;
43771;SDS011;59066;54.782;32.024;2023-06-14T03:33:17;10.70;;;5.65;;
43771;SDS011;59066;54.782;32.024;2023-06-14T03:35:45;11.32;;;4.65;;
43771;SDS011;59066;54.782;32.024;2023-06-14T03:38:13;9.27;;;4.15;;
43771;SDS011;59066;54.782;32.024;2023-06-14T03:40:41;6.90;;;4.30;;
43771;SDS011;59066;54.782;32.024;2023-06-14T03:43:08;10.90;;;4.68;;
43771;SDS011;59066;54.782;32.024;2023-06-14T03:45:37;7.65;;;4.20;;
43771;SDS011;59066;54.782;32.024;2023-06-14T03:48:08;8.02;;;4.15;;
43771;SDS011;59066;54.782;32.024;2023-06-14T03:50:36;13.68;;;5.00;;
43771;SDS011;59066;54.782;32.024;2023-06-14T03:53:05;9.35;;;4.72;;
43771;SDS011;59066;54.782;32.024;2023-06-14T03:55:35;17.27;;;4.82;;
43771;SDS011;59066;54.782;32.024;2023-06-14T03:58:24;10.52;;;4.18;;
43771;SDS011;59066;54.782;32.024;2023-06-14T04:00:51;10.02;;;4.18;;
43771;SDS011;59066;54.782;32.024;2023-06-14T04:03:19;11.43;;;5.13;;
43771;SDS011;59066;54.782;32.024;2023-06-14T04:05:49;8.38;;;3.60;;
43771;SDS011;59066;54.782;32.024;2023-06-14T04:08:18;13.23;;;5.07;;
43771;SDS011;59066;54.782;32.024;2023-06-14T04:10:46;14.52;;;3.90;;
43771;SDS011;59066;54.782;32.024;2023-06-14T04:13:14;8.07;;;4.00;;
43771;SDS011;59066;54.782;32.024;2023-06-14T04:15:41;9.77;;;3.58;;
43771;SDS011;59066;54.782;32.024;2023-06-14T04:18:13;11.85;;;4.13;;
43771;SDS011;59066;54.782;32.024;2023-06-14T04:20:40;12.32;;;4.15;;
43771;SDS011;59066;54.782;32.024;2023-06-14T04:23:15;16.70;;;5.88;;
43771;SDS011;59066;54.782;32.024;2023-06-14T04:25:45;11.20;;;3.92;;
43771;SDS011;59066;54.782;32.024;2023-06-14T04:28:15;10.45;;;4.20;;
43771;SDS011;59066;54.782;32.024;2023-06-14T04:30:45;16.25;;;3.90;;
43771;SDS011;59066;54.782;32.024;2023-06-14T04:33:17;16.88;;;6.03;;
43771;SDS011;59066;54.782;32.024;2023-06-14T04:35:45;16.92;;;5.28;;
43771;SDS011;59066;54.782;32.024;2023-06-14T04:38:16;15.15;;;4.88;;
43771;SDS011;59066;54.782;32.024;2023-06-14T04:40:45;18.67;;;4.20;;
43771;SDS011;59066;54.782;32.024;2023-06-14T04:43:16;14.77;;;4.55;;
43771;SDS011;59066;54.782;32.024;2023-06-14T04:45:48;16.60;;;4.80;;
43771;SDS011;59066;54.782;32.024;2023-06-14T04:48:16;13.65;;;5.07;;
43771;SDS011;59066;54.782;32.024;2023-06-14T04:50:47;14.15;;;5.90;;
43771;SDS011;59066;54.782;32.024;2023-06-14T04:53:20;12.23;;;5.00;;
43771;SDS011;59066;54.782;32.024;2023-06-14T04:55:53;11.00;;;5.05;;
43771;SDS011;59066;54.782;32.024;2023-06-14T04:58:22;13.63;;;5.10;;
43771;SDS011;59066;54.782;32.024;2023-06-14T05:00:49;12.88;;;4.78;;
43771;SDS011;59066;54.782;32.024;2023-06-14T05:03:17;12.43;;;5.20;;
43771;SDS011;59066;54.782;32.024;2023-06-14T05:05:45;10.80;;;4.63;;
43771;SDS011;59066;54.782;32.024;2023-06-14T05:08:13;18.95;;;6.90;;
43771;SDS011;59066;54.782;32.024;2023-06-14T05:10:40;20.23;;;6.50;;
43771;SDS011;59066;54.782;32.024;2023-06-14T05:13:08;23.80;;;5.50;;
43771;SDS011;59066;54.782;32.024;2023-06-14T05:15:37;19.35;;;5.60;;
43771;SDS011;59066;54.782;32.024;2023-06-14T05:18:04;24.00;;;7.88;;
43771;SDS011;59066;54.782;32.024;2023-06-14T05:20:32;19.77;;;8.27;;
43771;SDS011;59066;54.782;32.024;2023-06-14T05:22:59;12.40;;;6.10;;
43771;SDS011;59066;54.782;32.024;2023-06-14T05:25:27;17.67;;;6.90;;
43771;SDS011;59066;54.782;32.024;2023-06-14T05:27:55;15.73;;;7.38;;
43771;SDS011;59066;54.782;32.024;2023-06-14T05:30:22;13.98;;;6.55;;
43771;SDS011;59066;54.782;32.024;2023-06-14T05:32:52;14.10;;;6.15;;
43771;SDS011;59066;54.782;32.024;2023-06-14T05:35:20;20.08;;;6.40;;
43771;SDS011;59066;54.782;32.024;2023-06-14T05:37:49;24.83;;;7.07;;
43771;SDS011;59066;54.782;32.024;2023-06-14T05:40:17;24.90;;;6.93;;
43771;SDS011;59066;54.782;32.024;2023-06-14T05:42:45;17.30;;;6.75;;
43771;SDS011;59066;54.782;32.024;2023-06-14T05:45:13;13.10;;;5.75;;
43771;SDS011;59066;54.782;32.024;2023-06-14T05:47:43;12.32;;;6.35;;
43771;SDS011;59066;54.782;32.024;2023-06-14T05:50:10;11.52;;;6.05;;
43771;SDS011;59066;54.782;32.024;2023-06-14T05:52:38;12.98;;;5.32;;
43771;SDS011;59066;54.782;32.024;2023-06-14T05:55:05;15.38;;;5.93;;
43771;SDS011;59066;54.782;32.024;2023-06-14T05:57:33;19.08;;;6.80;;
43771;SDS011;59066;54.782;32.024;2023-06-14T06:00:00;21.73;;;8.27;;
43771;SDS011;59066;54.782;32.024;2023-06-14T06:02:37;17.33;;;6.03;;
43771;SDS011;59066;54.782;32.024;2023-06-14T06:05:05;11.27;;;6.82;;
43771;SDS011;59066;54.782;32.024;2023-06-14T06:07:33;13.10;;;5.43;;
43771;SDS011;59066;54.782;32.024;2023-06-14T06:10:03;16.23;;;5.40;;
43771;SDS011;59066;54.782;32.024;2023-06-14T06:12:32;14.30;;;6.90;;
43771;SDS011;59066;54.782;32.024;2023-06-14T06:14:59;9.10;;;5.18;;
43771;SDS011;59066;54.782;32.024;2023-06-14T06:17:27;14.18;;;5.85;;
43771;SDS011;59066;54.782;32.024;2023-06-14T06:20:05;13.02;;;5.10;;
43771;SDS011;59066;54.782;32.024;2023-06-14T06:22:35;16.13;;;5.15;;
43771;SDS011;59066;54.782;32.024;2023-06-14T06:25:02;15.27;;;5.05;;
43771;SDS011;59066;54.782;32.024;2023-06-14T06:27:30;19.40;;;5.70;;
43771;SDS011;59066;54.782;32.024;2023-06-14T06:29:57;19.95;;;6.05;;
43771;SDS011;59066;54.782;32.024;2023-06-14T06:32:25;17.40;;;4.82;;
43771;SDS011;59066;54.782;32.024;2023-06-14T06:34:52;14.23;;;6.70;;
43771;SDS011;59066;54.782;32.024;2023-06-14T06:37:20;13.75;;;5.57;;
43771;SDS011;59066;54.782;32.024;2023-06-14T06:39:47;11.13;;;4.22;;
43771;SDS011;59066;54.782;32.024;2023-06-14T06:42:15;11.90;;;4.50;;
43771;SDS011;59066;54.782;32.024;2023-06-14T06:44:42;11.02;;;4.07;;
43771;SDS011;59066;54.782;32.024;2023-06-14T06:47:11;12.80;;;4.45;;
43771;SDS011;59066;54.782;32.024;2023-06-14T06:49:38;9.32;;;4.25;;
43771;SDS011;59066;54.782;32.024;2023-06-14T06:52:06;15.40;;;8.07;;
43771;SDS011;59066;54.782;32.024;2023-06-14T06:54:34;13.45;;;5.78;;
43771;SDS011;59066;54.782;32.024;2023-06-14T06:57:02;19.27;;;5.35;;
43771;SDS011;59066;54.782;32.024;2023-06-14T06:59:30;17.60;;;4.90;;
43771;SDS011;59066;54.782;32.024;2023-06-14T07:01:57;9.05;;;4.03;;
43771;SDS011;59066;54.782;32.024;2023-06-14T07:04:25;10.02;;;5.07;;
43771;SDS011;59066;54.782;32.024;2023-06-14T07:06:52;9.35;;;5.50;;
43771;SDS011;59066;54.782;32.024;2023-06-14T07:09:20;11.85;;;4.97;;
43771;SDS011;59066;54.782;32.024;2023-06-14T07:11:47;10.30;;;5.05;;
43771;SDS011;59066;54.782;32.024;2023-06-14T07:14:15;10.13;;;5.22;;
43771;SDS011;59066;54.782;32.024;2023-06-14T07:16:42;19.95;;;5.28;;
43771;SDS011;59066;54.782;32.024;2023-06-14T07:19:10;9.70;;;4.05;;
43771;SDS011;59066;54.782;32.024;2023-06-14T07:21:38;13.10;;;5.57;;
43771;SDS011;59066;54.782;32.024;2023-06-14T07:24:06;11.95;;;3.83;;
43771;SDS011;59066;54.782;32.024;2023-06-14T07:26:34;12.70;;;4.22;;
43771;SDS011;59066;54.782;32.024;2023-06-14T07:29:02;9.32;;;4.07;;
43771;SDS011;59066;54.782;32.024;2023-06-14T07:31:30;9.73;;;3.95;;
43771;SDS011;59066;54.782;32.024;2023-06-14T07:33:57;11.65;;;4.20;;
43771;SDS011;59066;54.782;32.024;2023-06-14T07:36:25;23.02;;;4.75;;
43771;SDS011;59066;54.782;32.024;2023-06-14T07:38:53;7.85;;;3.33;;
43771;SDS011;59066;54.782;32.024;2023-06-14T07:41:20;10.82;;;4.22;;
43771;SDS011;59066;54.782;32.024;2023-06-14T07:43:48;11.43;;;4.43;;
43771;SDS011;59066;54.782;32.024;2023-06-14T07:46:15;20.70;;;4.22;;
43771;SDS011;59066;54.782;32.024;2023-06-14T07:48:43;6.72;;;3.53;;
43771;SDS011;59066;54.782;32.024;2023-06-14T07:51:10;9.43;;;4.53;;
43771;SDS011;59066;54.782;32.024;2023-06-14T07:53:38;14.65;;;5.20;;
43771;SDS011;59066;54.782;32.024;2023-06-14T07:56:05;14.43;;;4.03;;
43771;SDS011;59066;54.782;32.024;2023-06-14T07:58:33;15.02;;;4.07;;
43771;SDS011;59066;54.782;32.024;2023-06-14T08:01:00;5.85;;;3.78;;
43771;SDS011;59066;54.782;32.024;2023-06-14T08:03:33;14.02;;;5.03;;
43771;SDS011;59066;54.782;32.024;2023-06-14T08:06:01;13.90;;;4.75;;
43771;SDS011;59066;54.782;32.024;2023-06-14T08:08:29;8.40;;;3.58;;
43771;SDS011;59066;54.782;32.024;2023-06-14T08:10:57;6.82;;;3.78;;
43771;SDS011;59066;54.782;32.024;2023-06-14T08:13:24;11.85;;;4.55;;
43771;SDS011;59066;54.782;32.024;2023-06-14T08:15:52;10.38;;;4.00;;
43771;SDS011;59066;54.782;32.024;2023-06-14T08:18:19;15.43;;;4.65;;
43771;SDS011;59066;54.782;32.024;2023-06-14T08:20:53;7.13;;;3.30;;
43771;SDS011;59066;54.782;32.024;2023-06-14T08:23:21;6.63;;;4.47;;
43771;SDS011;59066;54.782;32.024;2023-06-14T08:25:48;9.20;;;4.20;;
43771;SDS011;59066;54.782;32.024;2023-06-14T08:28:16;13.80;;;4.30;;
43771;SDS011;59066;54.782;32.024;2023-06-14T08:30:44;8.10;;;4.50;;
43771;SDS011;59066;54.782;32.024;2023-06-14T08:33:11;14.10;;;6.40;;
43771;SDS011;59066;54.782;32.024;2023-06-14T08:35:42;13.40;;;5.43;;
43771;SDS011;59066;54.782;32.024;2023-06-14T08:38:10;10.43;;;4.70;;
43771;SDS011;59066;54.782;32.024;2023-06-14T08:40:38;10.40;;;4.40;;
43771;SDS011;59066;54.782;32.024;2023-06-14T08:43:09;6.20;;;3.70;;
43771;SDS011;59066;54.782;32.024;2023-06-14T08:45:36;9.15;;;5.78;;
43771;SDS011;59066;54.782;32.024;2023-06-14T08:48:05;9.25;;;4.07;;
43771;SDS011;59066;54.782;32.024;2023-06-14T08:50:34;6.50;;;4.60;;
43771;SDS011;59066;54.782;32.024;2023-06-14T08:53:06;13.57;;;6.63;;
43771;SDS011;59066;54.782;32.024;2023-06-14T08:55:37;13.60;;;4.93;;
43771;SDS011;59066;54.782;32.024;2023-06-14T08:58:09;8.65;;;4.68;;
43771;SDS011;59066;54.782;32.024;2023-06-14T09:00:41;14.48;;;5.35;;
43771;SDS011;59066;54.782;32.024;2023-06-14T09:03:10;9.35;;;4.13;;
43771;SDS011;59066;54.782;32.024;2023-06-14T09:05:41;6.38;;;3.75;;
43771;SDS011;59066;54.782;32.024;2023-06-14T09:08:10;8.38;;;3.90;;
43771;SDS011;59066;54.782;32.024;2023-06-14T09:10:38;9.25;;;4.07;;
43771;SDS011;59066;54.782;32.024;2023-06-14T09:13:07;13.57;;;4.10;;
43771;SDS011;59066;54.782;32.024;2023-06-14T09:15:35;6.55;;;3.60;;
43771;SDS011;59066;54.782;32.024;2023-06-14T09:18:03;12.35;;;6.90;;
43771;SDS011;59066;54.782;32.024;2023-06-14T09:20:31;10.88;;;3.40;;
43771;SDS011;59066;54.782;32.024;2023-06-14T09:23:00;10.60;;;4.22;;
43771;SDS011;59066;54.782;32.024;2023-06-14T09:25:28;7.25;;;3.42;;
43771;SDS011;59066;54.782;32.024;2023-06-14T09:28:08;7.78;;;4.32;;
43771;SDS011;59066;54.782;32.024;2023-06-14T09:30:36;11.15;;;4.30;;
43771;SDS011;59066;54.782;32.024;2023-06-14T09:33:06;7.90;;;3.97;;
43771;SDS011;59066;54.782;32.024;2023-06-14T09:35:34;8.32;;;3.70;;
43771;SDS011;59066;54.782;32.024;2023-06-14T09:38:02;13.45;;;3.60;;
43771;SDS011;59066;54.782;32.024;2023-06-14T09:40:33;9.15;;;3.90;;
43771;SDS011;59066;54.782;32.024;2023-06-14T09:43:06;11.80;;;4.60;;
43771;SDS011;59066;54.782;32.024;2023-06-14T09:45:38;15.15;;;5.65;;
43771;SDS011;59066;54.782;32.024;2023-06-14T09:48:07;5.70;;;3.92;;
43771;SDS011;59066;54.782;32.024;2023-06-14T09:50:36;7.88;;;4.05;;
43771;SDS011;59066;54.782;32.024;2023-06-14T09:53:06;9.52;;;3.90;;
43771;SDS011;59066;54.782;32.024;2023-06-14T09:55:36;14.20;;;3.95;;
43771;SDS011;59066;54.782;32.024;2023-06-14T09:58:04;8.77;;;3.67;;
43771;SDS011;59066;54.782;32.024;2023-06-14T10:00:34;9.95;;;5.18;;
43771;SDS011;59066;54.782;32.024;2023-06-14T10:03:14;11.13;;;5.25;;
43771;SDS011;59066;54.782;32.024;2023-06-14T10:05:46;6.78;;;4.03;;
43771;SDS011;59066;54.782;32.024;2023-06-14T10:08:18;16.15;;;4.35;;
43771;SDS011;59066;54.782;32.024;2023-06-14T10:10:53;10.45;;;5.10;;
43771;SDS011;59066;54.782;32.024;2023-06-14T10:13:22;13.27;;;5.90;;
43771;SDS011;59066;54.782;32.024;2023-06-14T10:24:27;9.80;;;4.25;;
43771;SDS011;59066;54.782;32.024;2023-06-14T10:26:59;11.07;;;4.57;;
43771;SDS011;59066;54.782;32.024;2023-06-14T10:29:30;10.02;;;4.88;;
43771;SDS011;59066;54.782;32.024;2023-06-14T10:32:00;11.05;;;4.88;;
43771;SDS011;59066;54.782;32.024;2023-06-14T10:34:29;12.32;;;6.25;;
43771;SDS011;59066;54.782;32.024;2023-06-14T10:37:04;10.55;;;4.85;;
43771;SDS011;59066;54.782;32.024;2023-06-14T10:39:40;6.90;;;4.20;;
43771;SDS011;59066;54.782;32.024;2023-06-14T10:52:26;10.77;;;5.03;;
43771;SDS011;59066;54.782;32.024;2023-06-14T10:55:02;7.28;;;4.10;;
43771;SDS011;59066;54.782;32.024;2023-06-14T10:57:34;12.88;;;5.30;;
43771;SDS011;59066;54.782;32.024;2023-06-14T11:02:51;11.45;;;5.25;;
43771;SDS011;59066;54.782;32.024;2023-06-14T11:05:31;10.98;;;5.43;;
43771;SDS011;59066;54.782;32.024;2023-06-14T11:11:08;9.77;;;4.95;;
43771;SDS011;59066;54.782;32.024;2023-06-14T11:13:41;7.35;;;4.20;;
43771;SDS011;59066;54.782;32.024;2023-06-14T11:16:14;14.32;;;5.40;;
43771;SDS011;59066;54.782;32.024;2023-06-14T11:18:44;10.00;;;5.05;;
43771;SDS011;59066;54.782;32.024;2023-06-14T11:21:16;7.05;;;3.85;;
43771;SDS011;59066;54.782;32.024;2023-06-14T11:23:50;8.15;;;4.93;;
43771;SDS011;59066;54.782;32.024;2023-06-14T11:26:30;10.32;;;5.53;;
43771;SDS011;59066;54.782;32.024;2023-06-14T11:29:00;10.90;;;4.80;;
43771;SDS011;59066;54.782;32.024;2023-06-14T11:31:28;9.35;;;4.90;;
43771;SDS011;59066;54.782;32.024;2023-06-14T11:33:57;9.05;;;4.60;;
43771;SDS011;59066;54.782;32.024;2023-06-14T11:36:31;9.40;;;4.53;;
43771;SDS011;59066;54.782;32.024;2023-06-14T11:39:01;12.30;;;4.75;;
43771;SDS011;59066;54.782;32.024;2023-06-14T11:41:36;7.32;;;4.40;;
43771;SDS011;59066;54.782;32.024;2023-06-14T11:44:11;8.82;;;4.82;;
43771;SDS011;59066;54.782;32.024;2023-06-14T11:46:39;7.90;;;4.78;;
43771;SDS011;59066;54.782;32.024;2023-06-14T11:49:07;10.52;;;5.40;;
43771;SDS011;59066;54.782;32.024;2023-06-14T11:51:36;12.45;;;5.57;;
43771;SDS011;59066;54.782;32.024;2023-06-14T11:54:04;6.20;;;4.30;;
43771;SDS011;59066;54.782;32.024;2023-06-14T11:56:33;14.80;;;5.80;;
43771;SDS011;59066;54.782;32.024;2023-06-14T11:59:02;11.13;;;4.47;;
43771;SDS011;59066;54.782;32.024;2023-06-14T12:01:35;13.13;;;4.93;;
43771;SDS011;59066;54.782;32.024;2023-06-14T12:04:05;10.60;;;4.90;;
43771;SDS011;59066;54.782;32.024;2023-06-14T12:06:33;7.95;;;4.40;;
43771;SDS011;59066;54.782;32.024;2023-06-14T12:09:03;8.32;;;5.32;;
43771;SDS011;59066;54.782;32.024;2023-06-14T12:11:34;10.50;;;5.65;;
43771;SDS011;59066;54.782;32.024;2023-06-14T12:14:03;8.35;;;4.32;;
43771;SDS011;59066;54.782;32.024;2023-06-14T12:16:33;8.52;;;4.82;;
43771;SDS011;59066;54.782;32.024;2023-06-14T12:19:09;9.40;;;5.07;;
43771;SDS011;59066;54.782;32.024;2023-06-14T12:21:47;8.48;;;4.63;;
43771;SDS011;59066;54.782;32.024;2023-06-14T12:24:19;9.73;;;4.80;;
43771;SDS011;59066;54.782;32.024;2023-06-14T12:26:46;17.15;;;5.78;;
43771;SDS011;59066;54.782;32.024;2023-06-14T12:29:14;13.40;;;5.18;;
43771;SDS011;59066;54.782;32.024;2023-06-14T12:31:41;12.00;;;6.30;;
43771;SDS011;59066;54.782;32.024;2023-06-14T12:34:09;8.65;;;4.47;;
43771;SDS011;59066;54.782;32.024;2023-06-14T12:36:36;11.70;;;5.35;;
43771;SDS011;59066;54.782;32.024;2023-06-14T12:39:08;13.43;;;5.15;;
43771;SDS011;59066;54.782;32.024;2023-06-14T12:41:36;8.82;;;5.40;;
43771;SDS011;59066;54.782;32.024;2023-06-14T12:44:06;8.77;;;5.80;;
43771;SDS011;59066;54.782;32.024;2023-06-14T12:46:34;7.07;;;5.22;;
43771;SDS011;59066;54.782;32.024;2023-06-14T12:49:07;9.20;;;5.32;;
43771;SDS011;59066;54.782;32.024;2023-06-14T12:51:35;10.15;;;6.00;;
43771;SDS011;59066;54.782;32.024;2023-06-14T12:54:02;10.02;;;5.25;;
43771;SDS011;59066;54.782;32.024;2023-06-14T12:56:30;9.43;;;6.07;;
43771;SDS011;59066;54.782;32.024;2023-06-14T12:58:58;5.90;;;4.45;;
43771;SDS011;59066;54.782;32.024;2023-06-14T13:01:26;10.95;;;5.47;;
43771;SDS011;59066;54.782;32.024;2023-06-14T13:03:54;16.17;;;5.65;;
43771;SDS011;59066;54.782;32.024;2023-06-14T13:06:21;9.70;;;4.50;;
43771;SDS011;59066;54.782;32.024;2023-06-14T13:08:52;12.98;;;4.30;;
43771;SDS011;59066;54.782;32.024;2023-06-14T13:11:21;7.07;;;4.68;;
43771;SDS011;59066;54.782;32.024;2023-06-14T13:13:49;11.13;;;4.22;;
43771;SDS011;59066;54.782;32.024;2023-06-14T13:16:18;8.32;;;4.45;;
43771;SDS011;59066;54.782;32.024;2023-06-14T13:18:47;13.45;;;5.00;;
43771;SDS011;59066;54.782;32.024;2023-06-14T13:21:15;12.20;;;5.15;;
43771;SDS011;59066;54.782;32.024;2023-06-14T13:23:42;14.45;;;5.82;;
43771;SDS011;59066;54.782;32.024;2023-06-14T13:26:10;7.80;;;4.90;;
43771;SDS011;59066;54.782;32.024;2023-06-14T13:28:39;9.45;;;4.28;;
43771;SDS011;59066;54.782;32.024;2023-06-14T13:31:06;8.60;;;4.70;;
43771;SDS011;59066;54.782;32.024;2023-06-14T13:33:34;9.88;;;5.20;;
43771;SDS011;59066;54.782;32.024;2023-06-14T13:36:01;6.00;;;4.22;;
43771;SDS011;59066;54.782;32.024;2023-06-14T13:38:29;8.70;;;5.80;;
43771;SDS011;59066;54.782;32.024;2023-06-14T13:40:56;13.38;;;4.88;;
43771;SDS011;59066;54.782;32.024;2023-06-14T13:43:24;12.30;;;4.00;;
43771;SDS011;59066;54.782;32.024;2023-06-14T13:45:51;15.07;;;5.18;;
43771;SDS011;59066;54.782;32.024;2023-06-14T13:48:19;9.23;;;4.40;;
43771;SDS011;59066;54.782;32.024;2023-06-14T13:50:47;6.22;;;3.83;;
43771;SDS011;59066;54.782;32.024;2023-06-14T13:53:14;6.75;;;4.40;;
43771;SDS011;59066;54.782;32.024;2023-06-14T13:55:41;11.77;;;5.30;;
43771;SDS011;59066;54.782;32.024;2023-06-14T13:58:09;8.90;;;4.78;;
43771;SDS011;59066;54.782;32.024;2023-06-14T14:00:37;15.55;;;4.53;;
43771;SDS011;59066;54.782;32.024;2023-06-14T14:03:07;7.88;;;4.53;;
43771;SDS011;59066;54.782;32.024;2023-06-14T14:05:35;13.68;;;5.30;;
43771;SDS011;59066;54.782;32.024;2023-06-14T14:08:03;8.45;;;5.50;;
43771;SDS011;59066;54.782;32.024;2023-06-14T14:10:31;13.23;;;4.45;;
43771;SDS011;59066;54.782;32.024;2023-06-14T14:12:58;11.85;;;4.32;;
43771;SDS011;59066;54.782;32.024;2023-06-14T14:15:26;10.60;;;4.50;;
43771;SDS011;59066;54.782;32.024;2023-06-14T14:17:55;12.18;;;5.10;;
43771;SDS011;59066;54.782;32.024;2023-06-14T14:20:24;7.55;;;4.78;;
43771;SDS011;59066;54.782;32.024;2023-06-14T14:22:53;8.40;;;5.00;;
43771;SDS011;59066;54.782;32.024;2023-06-14T14:25:20;10.50;;;4.80;;
43771;SDS011;59066;54.782;32.024;2023-06-14T14:27:48;6.82;;;4.63;;
43771;SDS011;59066;54.782;32.024;2023-06-14T14:30:15;14.00;;;5.47;;
43771;SDS011;59066;54.782;32.024;2023-06-14T14:32:47;12.77;;;5.13;;
43771;SDS011;59066;54.782;32.024;2023-06-14T14:35:16;8.60;;;4.70;;
43771;SDS011;59066;54.782;32.024;2023-06-14T14:37:44;10.48;;;5.50;;
43771;SDS011;59066;54.782;32.024;2023-06-14T14:40:12;11.32;;;6.07;;
43771;SDS011;59066;54.782;32.024;2023-06-14T14:42:39;9.05;;;5.38;;
43771;SDS011;59066;54.782;32.024;2023-06-14T14:45:07;10.65;;;5.28;;
43771;SDS011;59066;54.782;32.024;2023-06-14T14:47:35;13.48;;;7.72;;
43771;SDS011;59066;54.782;32.024;2023-06-14T14:50:02;11.00;;;5.40;;
43771;SDS011;59066;54.782;32.024;2023-06-14T14:52:30;7.53;;;5.45;;
43771;SDS011;59066;54.782;32.024;2023-06-14T14:54:57;6.75;;;4.57;;
43771;SDS011;59066;54.782;32.024;2023-06-14T14:57:25;11.57;;;4.75;;
43771;SDS011;59066;54.782;32.024;2023-06-14T14:59:52;10.20;;;5.10;;
43771;SDS011;59066;54.782;32.024;2023-06-14T15:02:20;10.20;;;6.00;;
43771;SDS011;59066;54.782;32.024;2023-06-14T15:04:47;8.57;;;6.05;;